createdAt,value
2019-03-30T00:00:12.835Z,22.00
2019-03-30T00:01:12.816Z,20.70
2019-03-30T00:02:12.794Z,22.80
2019-03-30T00:03:12.814Z,22.30
2019-03-30T00:04:12.749Z,22.10
2019-03-30T00:05:12.727Z,22.20
2019-03-30T00:06:12.705Z,22.40
2019-03-30T00:07:12.689Z,24.30
2019-03-30T00:08:12.668Z,23.10
2019-03-30T00:09:12.640Z,24.20
2019-03-30T00:10:12.623Z,24.00
2019-03-30T00:11:12.602Z,25.30
2019-03-30T00:12:12.579Z,26.20
2019-03-30T00:13:12.551Z,25.00
2019-03-30T00:14:12.532Z,25.00
2019-03-30T00:15:12.516Z,24.40
2019-03-30T00:16:12.490Z,26.30
2019-03-30T00:17:12.469Z,26.00
2019-03-30T00:18:12.446Z,25.50
2019-03-30T00:19:12.423Z,26.00
2019-03-30T00:20:12.409Z,27.60
2019-03-30T00:21:12.389Z,28.90
2019-03-30T00:22:12.359Z,27.40
2019-03-30T00:23:12.337Z,27.60
2019-03-30T00:24:12.322Z,27.50
2019-03-30T00:25:12.296Z,22.90
2019-03-30T00:26:12.277Z,22.80
2019-03-30T00:27:12.255Z,23.20
2019-03-30T00:28:12.230Z,21.90
2019-03-30T00:29:12.216Z,23.00
2019-03-30T00:30:12.185Z,23.00
2019-03-30T00:31:12.171Z,22.20
2019-03-30T00:32:12.137Z,23.00
2019-03-30T00:33:12.122Z,23.70
2019-03-30T00:34:12.095Z,22.80
2019-03-30T00:35:12.078Z,23.90
2019-03-30T00:36:12.058Z,24.60
2019-03-30T00:37:12.029Z,23.40
2019-03-30T00:38:12.007Z,24.40
2019-03-30T00:39:11.988Z,24.20
2019-03-30T00:40:11.963Z,24.20
2019-03-30T00:41:11.940Z,25.00
2019-03-30T00:42:11.918Z,22.10
2019-03-30T00:43:11.896Z,22.20
2019-03-30T00:44:11.881Z,22.00
2019-03-30T00:45:11.854Z,22.10
2019-03-30T00:46:11.843Z,21.60
2019-03-30T00:47:11.807Z,21.90
2019-03-30T00:48:11.787Z,22.30
2019-03-30T00:49:11.765Z,23.40
2019-03-30T00:50:11.742Z,24.50
2019-03-30T00:51:11.719Z,22.60
2019-03-30T00:52:11.706Z,25.60
2019-03-30T00:53:11.675Z,23.80
2019-03-30T00:54:11.654Z,23.80
2019-03-30T00:55:11.631Z,21.10
2019-03-30T00:56:11.609Z,19.00
2019-03-30T00:57:11.586Z,19.60
2019-03-30T00:58:11.567Z,21.70
2019-03-30T00:59:11.542Z,18.70
2019-03-30T01:00:11.524Z,21.40
2019-03-30T01:01:11.501Z,22.00
2019-03-30T01:02:11.476Z,22.80
2019-03-30T01:03:11.453Z,23.40
2019-03-30T01:04:11.434Z,23.80
2019-03-30T01:05:11.418Z,24.10
2019-03-30T01:06:11.389Z,24.70
2019-03-30T01:07:11.366Z,23.80
2019-03-30T01:08:11.345Z,18.30
2019-03-30T01:09:11.328Z,17.10
2019-03-30T01:10:11.299Z,20.30
2019-03-30T01:11:11.278Z,20.60
2019-03-30T01:12:11.253Z,18.60
2019-03-30T01:13:11.232Z,19.60
2019-03-30T01:14:11.212Z,17.00
2019-03-30T01:15:11.186Z,18.30
2019-03-30T01:16:11.170Z,19.40
2019-03-30T01:17:11.145Z,18.60
2019-03-30T01:18:11.122Z,22.20
2019-03-30T01:19:11.106Z,22.60
2019-03-30T01:20:11.077Z,22.10
2019-03-30T01:21:11.101Z,21.30
2019-03-30T01:22:11.041Z,21.10
2019-03-30T01:23:11.009Z,21.80
2019-03-30T01:24:10.988Z,21.20
2019-03-30T01:25:10.967Z,21.60
2019-03-30T01:26:10.945Z,21.40
2019-03-30T01:27:10.923Z,20.30
2019-03-30T01:28:10.900Z,21.20
2019-03-30T01:29:10.878Z,23.70
2019-03-30T01:30:22.567Z,22.10
2019-03-30T01:31:10.832Z,23.50
2019-03-30T01:32:10.809Z,23.50
2019-03-30T01:33:10.802Z,23.80
2019-03-30T01:34:10.768Z,23.30
2019-03-30T01:35:10.788Z,23.00
2019-03-30T01:36:10.724Z,23.40
2019-03-30T01:37:10.698Z,23.70
2019-03-30T01:38:10.676Z,23.60
2019-03-30T01:39:10.653Z,24.10
2019-03-30T01:40:10.629Z,24.90
2019-03-30T01:41:10.616Z,25.00
2019-03-30T01:42:10.587Z,24.50
2019-03-30T01:43:10.562Z,24.70
2019-03-30T01:44:10.542Z,25.40
2019-03-30T01:45:10.522Z,26.10
2019-03-30T01:46:10.496Z,25.60
2019-03-30T01:47:10.474Z,24.30
2019-03-30T01:48:10.452Z,25.70
2019-03-30T01:49:10.432Z,25.40
2019-03-30T01:50:17.369Z,25.20
2019-03-30T01:51:10.394Z,25.00
2019-03-30T01:52:10.362Z,25.90
2019-03-30T01:53:10.341Z,24.80
2019-03-30T01:54:10.322Z,26.10
2019-03-30T01:55:10.370Z,26.70
2019-03-30T01:56:10.274Z,26.40
2019-03-30T01:57:10.252Z,27.00
2019-03-30T01:58:10.229Z,26.30
2019-03-30T01:59:10.210Z,25.70
2019-03-30T02:00:10.188Z,26.50
2019-03-30T02:01:10.167Z,26.90
2019-03-30T02:02:10.142Z,26.00
2019-03-30T02:03:10.119Z,25.00
2019-03-30T02:04:10.097Z,25.40
2019-03-30T02:05:10.076Z,25.70
2019-03-30T02:06:10.060Z,26.30
2019-03-30T02:07:10.029Z,25.50
2019-03-30T02:08:10.008Z,26.40
2019-03-30T02:09:09.984Z,26.80
2019-03-30T02:10:09.969Z,24.90
2019-03-30T02:11:09.942Z,24.00
2019-03-30T02:12:09.927Z,21.50
2019-03-30T02:13:09.898Z,20.90
2019-03-30T02:14:09.872Z,20.30
2019-03-30T02:15:09.850Z,20.80
2019-03-30T02:16:09.827Z,22.20
2019-03-30T02:17:09.816Z,21.80
2019-03-30T02:18:09.794Z,22.30
2019-03-30T02:19:09.760Z,23.20
2019-03-30T02:20:09.737Z,23.60
2019-03-30T02:21:09.718Z,23.40
2019-03-30T02:22:09.698Z,23.20
2019-03-30T02:23:09.670Z,21.70
2019-03-30T02:24:09.647Z,22.00
2019-03-30T02:25:09.627Z,22.40
2019-03-30T02:26:09.603Z,21.70
2019-03-30T02:27:09.592Z,22.30
2019-03-30T02:28:09.562Z,20.90
2019-03-30T02:29:09.535Z,21.60
2019-03-30T02:30:09.515Z,22.70
2019-03-30T02:31:09.507Z,22.20
2019-03-30T02:32:09.472Z,22.80
2019-03-30T02:33:09.449Z,20.50
2019-03-30T02:34:09.429Z,22.20
2019-03-30T02:35:09.409Z,21.20
2019-03-30T02:36:09.468Z,22.80
2019-03-30T02:37:09.357Z,22.00
2019-03-30T02:38:09.335Z,22.70
2019-03-30T02:39:09.311Z,21.60
2019-03-30T02:40:09.289Z,22.80
2019-03-30T02:41:09.266Z,22.50
2019-03-30T02:42:09.244Z,23.80
2019-03-30T02:43:09.220Z,22.50
2019-03-30T02:44:09.207Z,25.10
2019-03-30T02:45:09.181Z,23.40
2019-03-30T02:46:09.153Z,24.10
2019-03-30T02:47:09.130Z,23.70
2019-03-30T02:48:09.114Z,24.70
2019-03-30T02:49:09.085Z,24.30
2019-03-30T02:50:09.066Z,23.80
2019-03-30T02:51:09.043Z,24.30
2019-03-30T02:52:09.028Z,23.70
2019-03-30T02:53:08.995Z,22.60
2019-03-30T02:54:08.973Z,24.30
2019-03-30T02:55:12.583Z,24.70
2019-03-30T02:56:08.931Z,23.30
2019-03-30T02:57:08.910Z,24.00
2019-03-30T02:58:08.886Z,23.20
2019-03-30T02:59:08.861Z,20.90
2019-03-30T03:00:08.838Z,21.30
2019-03-30T03:01:08.817Z,22.40
2019-03-30T03:02:08.803Z,23.00
2019-03-30T03:03:08.774Z,23.00
2019-03-30T03:04:08.750Z,22.40
2019-03-30T03:05:08.732Z,19.30
2019-03-30T03:06:08.703Z,15.50
2019-03-30T03:07:08.684Z,13.70
2019-03-30T03:08:08.661Z,14.20
2019-03-30T03:09:08.636Z,13.50
2019-03-30T03:10:08.614Z,15.50
2019-03-30T03:11:08.590Z,18.50
2019-03-30T03:12:08.575Z,20.50
2019-03-30T03:13:08.547Z,22.30
2019-03-30T03:14:08.533Z,21.00
2019-03-30T03:15:08.499Z,24.30
2019-03-30T03:16:08.477Z,22.50
2019-03-30T03:17:08.454Z,22.40
2019-03-30T03:18:08.431Z,23.90
2019-03-30T03:19:08.412Z,21.70
2019-03-30T03:20:08.397Z,20.90
2019-03-30T03:21:08.850Z,18.10
2019-03-30T03:22:08.343Z,18.50
2019-03-30T03:23:08.329Z,18.60
2019-03-30T03:24:08.296Z,19.20
2019-03-30T03:25:08.273Z,19.90
2019-03-30T03:26:08.250Z,20.70
2019-03-30T03:27:08.228Z,20.60
2019-03-30T03:28:08.223Z,21.50
2019-03-30T03:29:08.184Z,23.50
2019-03-30T03:30:08.170Z,25.10
2019-03-30T03:31:08.149Z,24.90
2019-03-30T03:32:08.129Z,24.20
2019-03-30T03:33:08.095Z,24.30
2019-03-30T03:34:08.109Z,24.00
2019-03-30T03:35:08.081Z,25.30
2019-03-30T03:36:08.054Z,25.10
2019-03-30T03:37:08.009Z,25.50
2019-03-30T03:38:07.987Z,24.40
2019-03-30T03:39:07.956Z,21.50
2019-03-30T03:40:07.939Z,21.30
2019-03-30T03:41:07.915Z,22.50
2019-03-30T03:42:07.897Z,23.70
2019-03-30T03:43:07.870Z,25.40
2019-03-30T03:44:07.850Z,23.60
2019-03-30T03:45:07.823Z,23.90
2019-03-30T03:46:07.812Z,23.70
2019-03-30T03:47:07.777Z,22.30
2019-03-30T03:48:07.759Z,24.10
2019-03-30T03:49:07.747Z,24.10
2019-03-30T03:50:07.710Z,24.10
2019-03-30T03:51:24.582Z,23.80
2019-03-30T03:52:07.672Z,23.80
2019-03-30T03:53:07.642Z,24.00
2019-03-30T03:54:07.628Z,24.30
2019-03-30T03:55:07.598Z,24.30
2019-03-30T03:56:07.586Z,23.80
2019-03-30T03:57:07.552Z,23.60
2019-03-30T03:58:07.532Z,23.10
2019-03-30T03:59:07.551Z,22.80
2019-03-30T04:00:07.487Z,21.00
2019-03-30T04:01:07.474Z,21.00
2019-03-30T04:02:07.439Z,22.10
2019-03-30T04:03:07.416Z,21.70
2019-03-30T04:04:07.397Z,22.90
2019-03-30T04:05:07.375Z,22.20
2019-03-30T04:06:07.351Z,22.30
2019-03-30T04:07:07.328Z,23.10
2019-03-30T04:08:07.301Z,22.80
2019-03-30T04:09:07.282Z,21.90
2019-03-30T04:10:07.424Z,21.50
2019-03-30T04:11:07.233Z,23.30
2019-03-30T04:12:07.211Z,22.10
2019-03-30T04:13:07.328Z,23.00
2019-03-30T04:14:07.181Z,23.70
2019-03-30T04:15:07.145Z,23.50
2019-03-30T04:16:07.124Z,23.20
2019-03-30T04:17:07.101Z,23.30
2019-03-30T04:18:07.078Z,21.80
2019-03-30T04:19:07.060Z,21.60
2019-03-30T04:20:07.048Z,20.70
2019-03-30T04:21:07.009Z,20.20
2019-03-30T04:22:06.988Z,19.40
2019-03-30T04:23:06.965Z,20.40
2019-03-30T04:24:06.942Z,20.30
2019-03-30T04:25:06.918Z,20.40
2019-03-30T04:26:06.895Z,20.40
2019-03-30T04:27:06.872Z,18.80
2019-03-30T04:28:06.851Z,20.30
2019-03-30T04:29:06.826Z,20.40
2019-03-30T04:30:06.812Z,19.70
2019-03-30T04:31:06.791Z,18.70
2019-03-30T04:32:06.757Z,18.30
2019-03-30T04:33:06.736Z,19.70
2019-03-30T04:34:06.715Z,20.00
2019-03-30T04:35:06.693Z,20.30
2019-03-30T04:36:06.757Z,18.40
2019-03-30T04:37:06.647Z,19.10
2019-03-30T04:38:06.623Z,18.80
2019-03-30T04:39:06.604Z,18.80
2019-03-30T04:40:06.578Z,18.50
2019-03-30T04:41:06.553Z,19.30
2019-03-30T04:42:06.533Z,19.50
2019-03-30T04:43:06.507Z,20.50
2019-03-30T04:44:06.486Z,19.50
2019-03-30T04:45:06.463Z,19.80
2019-03-30T04:46:06.439Z,18.30
2019-03-30T04:47:06.418Z,19.50
2019-03-30T04:48:06.395Z,19.50
2019-03-30T04:49:06.372Z,20.10
2019-03-30T04:50:06.536Z,20.30
2019-03-30T04:51:06.323Z,20.60
2019-03-30T04:52:06.303Z,20.90
2019-03-30T04:53:06.280Z,20.10
2019-03-30T04:54:06.256Z,18.70
2019-03-30T04:55:06.234Z,18.20
2019-03-30T04:56:06.210Z,17.80
2019-03-30T04:57:06.189Z,18.30
2019-03-30T04:58:09.046Z,18.40
2019-03-30T04:59:06.139Z,18.00
2019-03-30T05:00:06.118Z,16.90
2019-03-30T05:01:06.098Z,17.50
2019-03-30T05:02:06.077Z,18.10
2019-03-30T05:03:06.051Z,18.10
2019-03-30T05:04:06.026Z,19.70
2019-03-30T05:05:06.003Z,17.90
2019-03-30T05:06:05.981Z,19.40
2019-03-30T05:07:05.961Z,20.00
2019-03-30T05:08:05.934Z,20.10
2019-03-30T05:09:05.910Z,19.00
2019-03-30T05:10:05.887Z,19.50
2019-03-30T05:11:05.869Z,19.70
2019-03-30T05:12:05.843Z,19.30
2019-03-30T05:13:05.817Z,21.40
2019-03-30T05:14:05.795Z,20.20
2019-03-30T05:15:05.773Z,19.70
2019-03-30T05:16:05.749Z,21.40
2019-03-30T05:17:05.727Z,19.30
2019-03-30T05:18:05.712Z,17.70
2019-03-30T05:19:05.683Z,15.40
2019-03-30T05:20:05.658Z,13.60
2019-03-30T05:21:05.638Z,13.10
2019-03-30T05:22:12.127Z,12.70
2019-03-30T05:23:05.593Z,7.80
2019-03-30T05:24:05.567Z,8.00
2019-03-30T05:25:05.541Z,9.10
2019-03-30T05:26:05.524Z,9.20
2019-03-30T05:27:05.500Z,10.60
2019-03-30T05:28:05.476Z,12.10
2019-03-30T05:29:05.453Z,12.50
2019-03-30T05:30:05.439Z,12.70
2019-03-30T05:31:05.404Z,13.50
2019-03-30T05:32:05.381Z,14.20
2019-03-30T05:33:06.432Z,14.20
2019-03-30T05:34:05.348Z,14.20
2019-03-30T05:35:05.340Z,15.60
2019-03-30T05:36:05.308Z,14.70
2019-03-30T05:37:05.273Z,14.90
2019-03-30T05:38:05.251Z,17.00
2019-03-30T05:39:05.216Z,15.90
2019-03-30T05:40:05.201Z,16.90
2019-03-30T05:41:05.177Z,17.90
2019-03-30T05:42:05.149Z,18.10
2019-03-30T05:43:05.127Z,17.20
2019-03-30T05:44:05.109Z,17.40
2019-03-30T05:45:05.083Z,17.00
2019-03-30T05:46:05.067Z,18.70
2019-03-30T05:47:05.036Z,18.20
2019-03-30T05:48:05.013Z,17.60
2019-03-30T05:49:04.989Z,18.00
2019-03-30T05:50:04.967Z,17.80
2019-03-30T05:51:04.942Z,18.30
2019-03-30T05:52:04.919Z,17.60
2019-03-30T05:53:04.895Z,16.40
2019-03-30T05:54:04.881Z,15.40
2019-03-30T05:55:04.858Z,16.40
2019-03-30T05:56:04.825Z,14.60
2019-03-30T05:57:04.802Z,15.90
2019-03-30T05:58:04.786Z,15.50
2019-03-30T05:59:04.756Z,16.10
2019-03-30T06:00:04.735Z,16.80
2019-03-30T06:01:04.710Z,17.10
2019-03-30T06:02:04.692Z,17.10
2019-03-30T06:03:04.665Z,16.00
2019-03-30T06:04:04.645Z,16.20
2019-03-30T06:05:04.619Z,17.50
2019-03-30T06:06:04.597Z,16.10
2019-03-30T06:07:04.573Z,16.50
2019-03-30T06:08:04.550Z,17.00
2019-03-30T06:09:04.537Z,16.80
2019-03-30T06:10:04.510Z,17.40
2019-03-30T06:11:04.482Z,17.40
2019-03-30T06:12:04.460Z,18.20
2019-03-30T06:13:04.436Z,16.60
2019-03-30T06:14:04.416Z,18.00
2019-03-30T06:15:04.403Z,18.10
2019-03-30T06:16:04.369Z,17.80
2019-03-30T06:17:04.348Z,18.70
2019-03-30T06:18:04.321Z,18.60
2019-03-30T06:19:04.297Z,17.70
2019-03-30T06:20:04.280Z,19.20
2019-03-30T06:21:04.254Z,19.40
2019-03-30T06:22:04.227Z,17.80
2019-03-30T06:23:04.218Z,18.00
2019-03-30T06:24:04.184Z,18.30
2019-03-30T06:25:04.163Z,18.40
2019-03-30T06:26:04.149Z,18.10
2019-03-30T06:27:04.113Z,17.80
2019-03-30T06:28:04.090Z,18.40
2019-03-30T06:29:04.070Z,17.50
2019-03-30T06:30:04.044Z,16.40
2019-03-30T06:31:04.035Z,18.90
2019-03-30T06:32:04.005Z,18.30
2019-03-30T06:33:03.986Z,17.70
2019-03-30T06:34:03.953Z,17.70
2019-03-30T06:35:03.930Z,19.20
2019-03-30T06:36:03.912Z,17.80
2019-03-30T06:37:03.889Z,17.30
2019-03-30T06:38:03.862Z,18.10
2019-03-30T06:39:03.842Z,16.80
2019-03-30T06:40:03.820Z,17.90
2019-03-30T06:41:03.795Z,16.40
2019-03-30T06:42:03.779Z,17.40
2019-03-30T06:43:03.754Z,16.30
2019-03-30T06:44:03.816Z,17.20
2019-03-30T06:45:03.703Z,17.20
2019-03-30T06:46:03.679Z,17.70
2019-03-30T06:47:03.662Z,17.10
2019-03-30T06:48:03.634Z,17.20
2019-03-30T06:49:03.620Z,17.60
2019-03-30T06:50:03.605Z,16.60
2019-03-30T06:51:03.571Z,16.70
2019-03-30T06:52:03.546Z,16.10
2019-03-30T06:53:03.522Z,16.60
2019-03-30T06:54:03.500Z,15.50
2019-03-30T06:55:03.478Z,16.40
2019-03-30T06:56:03.463Z,15.50
2019-03-30T06:57:03.434Z,15.10
2019-03-30T06:58:03.415Z,15.90
2019-03-30T06:59:03.393Z,14.30
2019-03-30T07:00:03.365Z,14.80
2019-03-30T07:01:03.348Z,14.40
2019-03-30T07:02:03.320Z,14.40
2019-03-30T07:03:03.298Z,14.10
2019-03-30T07:04:03.275Z,14.80
2019-03-30T07:05:03.257Z,13.30
2019-03-30T07:06:03.234Z,14.20
2019-03-30T07:07:03.225Z,13.30
2019-03-30T07:08:03.194Z,13.90
2019-03-30T07:09:03.169Z,14.20
2019-03-30T07:10:03.143Z,14.10
2019-03-30T07:11:03.120Z,14.10
2019-03-30T07:12:03.104Z,13.40
2019-03-30T07:13:03.087Z,13.70
2019-03-30T07:14:03.054Z,13.20
2019-03-30T07:15:03.032Z,13.90
2019-03-30T07:16:03.008Z,13.50
2019-03-30T07:17:02.991Z,13.10
2019-03-30T07:18:02.980Z,13.60
2019-03-30T07:19:02.944Z,14.10
2019-03-30T07:20:02.932Z,14.10
2019-03-30T07:21:02.905Z,13.10
2019-03-30T07:22:02.883Z,13.40
2019-03-30T07:23:11.616Z,13.00
2019-03-30T07:24:02.850Z,14.00
2019-03-30T07:25:02.814Z,13.60
2019-03-30T07:26:02.797Z,13.80
2019-03-30T07:27:02.769Z,13.30
2019-03-30T07:28:02.753Z,15.00
2019-03-30T07:29:02.723Z,13.80
2019-03-30T07:30:02.704Z,13.70
2019-03-30T07:31:02.680Z,13.90
2019-03-30T07:32:02.740Z,13.40
2019-03-30T07:33:02.643Z,12.10
2019-03-30T07:34:02.635Z,13.00
2019-03-30T07:35:02.601Z,13.90
2019-03-30T07:36:02.574Z,13.50
2019-03-30T07:37:02.561Z,12.80
2019-03-30T07:38:02.553Z,12.50
2019-03-30T07:39:02.505Z,13.20
2019-03-30T07:40:02.486Z,12.90
2019-03-30T07:41:02.466Z,13.00
2019-03-30T07:42:02.445Z,13.50
2019-03-30T07:43:02.419Z,12.30
2019-03-30T07:44:02.401Z,13.30
2019-03-30T07:45:02.382Z,13.80
2019-03-30T07:46:02.359Z,13.60
2019-03-30T07:47:02.342Z,13.80
2019-03-30T07:48:02.326Z,12.50
2019-03-30T07:49:02.292Z,14.50
2019-03-30T07:50:02.272Z,13.00
2019-03-30T07:51:02.257Z,12.90
2019-03-30T07:52:02.235Z,12.70
2019-03-30T07:53:02.206Z,12.20
2019-03-30T07:54:02.185Z,12.50
2019-03-30T07:55:02.166Z,13.80
2019-03-30T07:56:08.215Z,13.60
2019-03-30T07:57:05.491Z,12.10
2019-03-30T07:58:02.203Z,13.10
2019-03-30T07:59:02.086Z,13.80
2019-03-30T08:00:02.057Z,14.00
2019-03-30T08:01:02.038Z,14.10
2019-03-30T08:02:02.015Z,13.20
2019-03-30T08:03:01.994Z,13.50
2019-03-30T08:04:01.996Z,13.30
2019-03-30T08:05:01.950Z,13.80
2019-03-30T08:06:01.929Z,12.70
2019-03-30T08:07:01.907Z,13.30
2019-03-30T08:08:01.886Z,13.70
2019-03-30T08:09:01.866Z,13.10
2019-03-30T08:10:01.859Z,13.70
2019-03-30T08:11:01.828Z,12.70
2019-03-30T08:12:01.802Z,14.70
2019-03-30T08:13:01.793Z,14.40
2019-03-30T08:14:01.763Z,14.60
2019-03-30T08:15:01.744Z,13.60
2019-03-30T08:16:01.720Z,14.00
2019-03-30T08:17:01.710Z,13.80
2019-03-30T08:18:01.684Z,14.10
2019-03-30T08:19:01.665Z,13.40
2019-03-30T08:20:01.644Z,14.50
2019-03-30T08:21:01.619Z,13.20
2019-03-30T08:22:01.597Z,14.00
2019-03-30T08:23:01.598Z,12.90
2019-03-30T08:24:01.561Z,12.90
2019-03-30T08:25:01.545Z,13.30
2019-03-30T08:26:01.520Z,14.00
2019-03-30T08:27:01.498Z,14.40
2019-03-30T08:28:01.481Z,14.40
2019-03-30T08:29:01.455Z,12.90
2019-03-30T08:30:01.455Z,13.80
2019-03-30T08:31:01.436Z,13.80
2019-03-30T08:32:01.393Z,13.80
2019-03-30T08:33:01.369Z,13.10
2019-03-30T08:34:01.354Z,13.20
2019-03-30T08:35:01.334Z,14.10
2019-03-30T08:36:01.308Z,13.00
2019-03-30T08:37:01.287Z,14.10
2019-03-30T08:38:01.267Z,12.90
2019-03-30T08:39:01.250Z,13.20
2019-03-30T08:40:01.227Z,13.20
2019-03-30T08:41:01.209Z,13.80
2019-03-30T08:42:01.186Z,13.60
2019-03-30T08:43:01.163Z,13.10
2019-03-30T08:44:01.151Z,13.30
2019-03-30T08:45:01.163Z,13.60
2019-03-30T08:46:01.111Z,13.20
2019-03-30T08:47:01.088Z,13.60
2019-03-30T08:48:01.064Z,13.20
2019-03-30T08:49:01.050Z,13.30
2019-03-30T08:50:01.029Z,14.20
2019-03-30T08:51:01.005Z,13.60
2019-03-30T08:52:00.987Z,14.30
2019-03-30T08:53:00.982Z,13.70
2019-03-30T08:54:00.968Z,14.40
2019-03-30T08:55:00.926Z,13.70
2019-03-30T08:56:00.904Z,13.40
2019-03-30T08:57:00.896Z,13.60
2019-03-30T08:58:00.870Z,14.10
2019-03-30T08:59:00.844Z,14.20
2019-03-30T09:00:00.825Z,14.30
2019-03-30T09:01:00.807Z,14.40
2019-03-30T09:02:00.785Z,15.10
2019-03-30T09:03:00.776Z,14.00
2019-03-30T09:04:00.744Z,14.00
2019-03-30T09:05:00.727Z,14.80
2019-03-30T09:06:00.707Z,15.10
2019-03-30T09:07:00.689Z,14.10
2019-03-30T09:08:00.669Z,14.10
2019-03-30T09:09:00.646Z,14.70
2019-03-30T09:10:00.653Z,14.50
2019-03-30T09:11:00.617Z,13.80
2019-03-30T09:12:00.584Z,14.50
2019-03-30T09:13:00.569Z,14.90
2019-03-30T09:14:00.548Z,14.80
2019-03-30T09:15:00.531Z,14.60
2019-03-30T09:16:00.516Z,13.80
2019-03-30T09:17:00.490Z,14.30
2019-03-30T09:18:00.487Z,14.20
2019-03-30T09:19:00.457Z,14.80
2019-03-30T09:20:00.578Z,14.00
2019-03-30T09:21:00.429Z,14.70
2019-03-30T09:22:00.396Z,14.10
2019-03-30T09:23:00.369Z,13.70
2019-03-30T09:24:09.530Z,14.60
2019-03-30T09:25:00.528Z,15.30
2019-03-30T09:26:00.322Z,15.20
2019-03-30T09:27:00.298Z,15.40
2019-03-30T09:28:00.285Z,15.00
2019-03-30T09:29:00.257Z,14.40
2019-03-30T09:30:00.386Z,14.20
2019-03-30T09:31:00.215Z,15.30
2019-03-30T09:32:13.541Z,14.90
2019-03-30T09:33:00.174Z,15.10
2019-03-30T09:34:00.172Z,14.10
2019-03-30T09:35:00.238Z,15.00
2019-03-30T09:36:00.203Z,14.80
2019-03-30T09:37:00.095Z,15.90
2019-03-30T09:38:00.076Z,14.30
2019-03-30T09:39:00.056Z,14.50
2019-03-30T09:40:00.040Z,15.30
2019-03-30T09:41:00.025Z,14.30
2019-03-30T09:41:59.997Z,15.10
2019-03-30T09:42:59.977Z,14.70
2019-03-30T09:43:59.958Z,14.90
2019-03-30T09:44:59.942Z,13.90
2019-03-30T09:45:59.921Z,13.60
2019-03-30T09:46:59.907Z,13.90
2019-03-30T09:47:59.888Z,14.00
2019-03-30T09:48:59.871Z,14.60
2019-03-30T09:50:02.392Z,14.90
2019-03-30T09:50:59.837Z,14.90
2019-03-30T09:51:59.805Z,14.80
2019-03-30T09:52:59.787Z,13.70
2019-03-30T09:53:59.768Z,14.90
2019-03-30T09:54:59.844Z,14.10
2019-03-30T09:55:59.752Z,14.00
2019-03-30T09:56:59.709Z,14.80
2019-03-30T09:57:59.690Z,14.80
2019-03-30T09:58:59.678Z,14.80
2019-03-30T09:59:59.651Z,14.30
2019-03-30T10:00:59.632Z,14.30
2019-03-30T10:01:59.624Z,15.60
2019-03-30T10:02:59.611Z,14.10
2019-03-30T10:03:59.575Z,14.90
2019-03-30T10:04:59.557Z,14.80
2019-03-30T10:05:59.537Z,15.20
2019-03-30T10:06:59.525Z,15.20
2019-03-30T10:07:59.499Z,13.90
2019-03-30T10:08:59.478Z,16.00
2019-03-30T10:09:59.464Z,15.30
2019-03-30T10:10:59.450Z,15.00
2019-03-30T10:11:59.424Z,14.50
2019-03-30T10:12:59.412Z,15.80
2019-03-30T10:13:59.389Z,14.70
2019-03-30T10:14:59.371Z,14.90
2019-03-30T10:15:59.356Z,14.30
2019-03-30T10:16:59.334Z,15.30
2019-03-30T10:17:59.319Z,15.40
2019-03-30T10:18:59.295Z,14.40
2019-03-30T10:20:04.512Z,15.00
2019-03-30T10:20:59.258Z,15.20
2019-03-30T10:21:59.245Z,14.60
2019-03-30T10:22:59.222Z,13.80
2019-03-30T10:23:59.200Z,14.50
2019-03-30T10:24:59.246Z,14.40
2019-03-30T10:25:59.163Z,14.80
2019-03-30T10:26:59.159Z,14.30
2019-03-30T10:27:59.128Z,13.90
2019-03-30T10:28:59.108Z,15.10
2019-03-30T10:29:59.103Z,14.50
2019-03-30T10:30:59.078Z,14.50
2019-03-30T10:31:59.992Z,14.90
2019-03-30T10:32:59.035Z,14.50
2019-03-30T10:33:59.014Z,14.30
2019-03-30T10:34:58.997Z,15.00
2019-03-30T10:35:58.981Z,13.70
2019-03-30T10:36:58.965Z,13.90
2019-03-30T10:37:58.938Z,13.40
2019-03-30T10:38:58.922Z,13.50
2019-03-30T10:39:58.907Z,13.30
2019-03-30T10:40:58.895Z,13.80
2019-03-30T10:41:58.877Z,13.60
2019-03-30T10:42:58.855Z,14.90
2019-03-30T10:43:58.827Z,13.70
2019-03-30T10:44:58.811Z,13.00
2019-03-30T10:45:58.802Z,13.70
2019-03-30T10:46:58.789Z,13.70
2019-03-30T10:47:58.757Z,13.10
2019-03-30T10:48:58.742Z,14.70
2019-03-30T10:49:58.718Z,14.20
2019-03-30T10:50:58.701Z,13.90
2019-03-30T10:51:58.682Z,14.40
2019-03-30T10:52:58.679Z,13.90
2019-03-30T10:53:58.660Z,13.80
2019-03-30T10:54:58.629Z,14.20
2019-03-30T10:55:58.608Z,14.20
2019-03-30T10:56:58.591Z,13.30
2019-03-30T10:57:58.976Z,13.00
2019-03-30T10:58:58.553Z,13.30
2019-03-30T10:59:58.542Z,13.30
2019-03-30T11:00:58.597Z,13.10
2019-03-30T11:01:58.507Z,13.80
2019-03-30T11:02:58.480Z,13.80
2019-03-30T11:03:58.489Z,13.20
2019-03-30T11:04:58.478Z,13.80
2019-03-30T11:05:58.429Z,14.00
2019-03-30T11:06:58.409Z,14.30
2019-03-30T11:07:58.393Z,13.40
2019-03-30T11:08:58.378Z,13.60
2019-03-30T11:09:58.358Z,13.00
2019-03-30T11:10:58.342Z,13.70
2019-03-30T11:11:58.361Z,13.50
2019-03-30T11:12:58.313Z,13.90
2019-03-30T11:13:58.285Z,13.80
2019-03-30T11:14:58.286Z,14.90
2019-03-30T11:15:58.248Z,13.70
2019-03-30T11:16:58.230Z,13.80
2019-03-30T11:17:58.224Z,12.60
2019-03-30T11:18:58.194Z,13.00
2019-03-30T11:19:58.183Z,11.80
2019-03-30T11:20:58.186Z,11.50
2019-03-30T11:21:58.147Z,10.50
2019-03-30T11:22:58.135Z,11.50
2019-03-30T11:23:58.106Z,10.50
2019-03-30T11:25:07.153Z,9.30
2019-03-30T11:25:58.075Z,9.00
2019-03-30T11:26:58.062Z,9.50
2019-03-30T11:27:58.035Z,8.90
2019-03-30T11:28:58.023Z,8.80
2019-03-30T11:29:58.002Z,8.60
2019-03-30T11:30:57.985Z,9.20
2019-03-30T11:31:57.964Z,8.70
2019-03-30T11:32:57.945Z,9.90
2019-03-30T11:33:57.926Z,9.10
2019-03-30T11:34:57.916Z,8.50
2019-03-30T11:35:57.896Z,9.20
2019-03-30T11:36:57.883Z,8.70
2019-03-30T11:37:57.858Z,9.20
2019-03-30T11:38:57.848Z,9.50
2019-03-30T11:39:57.826Z,10.00
2019-03-30T11:40:57.804Z,9.80
2019-03-30T11:41:57.792Z,9.10
2019-03-30T11:42:57.768Z,10.40
2019-03-30T11:43:57.749Z,10.00
2019-03-30T11:44:57.748Z,9.10
2019-03-30T11:45:57.721Z,10.30
2019-03-30T11:46:57.697Z,9.40
2019-03-30T11:47:57.676Z,9.80
2019-03-30T11:48:57.706Z,9.30
2019-03-30T11:49:57.645Z,8.80
2019-03-30T11:50:57.633Z,10.90
2019-03-30T11:51:57.607Z,9.30
2019-03-30T11:52:57.601Z,9.50
2019-03-30T11:53:57.579Z,9.00
2019-03-30T11:54:57.563Z,8.80
2019-03-30T11:55:57.535Z,9.00
2019-03-30T11:56:57.525Z,9.60
2019-03-30T11:57:57.501Z,10.80
2019-03-30T11:58:57.493Z,10.10
2019-03-30T11:59:57.468Z,9.90
2019-03-30T12:00:57.448Z,10.40
2019-03-30T12:01:57.432Z,9.70
2019-03-30T12:02:57.417Z,10.20
2019-03-30T12:03:57.457Z,10.50
2019-03-30T12:04:57.377Z,9.30
2019-03-30T12:05:57.376Z,10.00
2019-03-30T12:06:57.341Z,8.90
2019-03-30T12:07:57.318Z,8.60
2019-03-30T12:08:57.303Z,9.30
2019-03-30T12:09:57.283Z,9.30
2019-03-30T12:10:57.267Z,10.10
2019-03-30T12:11:57.250Z,9.60
2019-03-30T12:12:57.231Z,8.70
2019-03-30T12:13:57.214Z,9.90
2019-03-30T12:14:57.198Z,10.10
2019-03-30T12:15:57.176Z,8.90
2019-03-30T12:16:57.160Z,8.90
2019-03-30T12:17:57.141Z,10.30
2019-03-30T12:18:57.137Z,9.70
2019-03-30T12:19:57.108Z,9.40
2019-03-30T12:20:57.090Z,9.00
2019-03-30T12:21:57.077Z,9.40
2019-03-30T12:22:57.072Z,8.80
2019-03-30T12:23:57.032Z,8.20
2019-03-30T12:24:57.024Z,9.20
2019-03-30T12:25:56.998Z,10.10
2019-03-30T12:26:56.980Z,8.80
2019-03-30T12:27:56.962Z,9.60
2019-03-30T12:28:56.946Z,8.80
2019-03-30T12:29:56.938Z,10.20
2019-03-30T12:30:56.911Z,9.80
2019-03-30T12:31:56.899Z,9.50
2019-03-30T12:32:56.875Z,9.00
2019-03-30T12:33:56.863Z,9.50
2019-03-30T12:34:56.839Z,9.00
2019-03-30T12:35:56.824Z,9.00
2019-03-30T12:36:56.807Z,8.90
2019-03-30T12:37:56.794Z,8.60
2019-03-30T12:38:56.767Z,9.70
2019-03-30T12:39:58.451Z,8.10
2019-03-30T12:40:56.732Z,9.50
2019-03-30T12:41:56.719Z,8.90
2019-03-30T12:42:56.696Z,8.70
2019-03-30T12:43:56.687Z,9.30
2019-03-30T12:44:56.660Z,8.10
2019-03-30T12:45:56.649Z,9.00
2019-03-30T12:46:56.625Z,8.60
2019-03-30T12:47:56.603Z,8.40
2019-03-30T12:48:56.584Z,9.10
2019-03-30T12:49:56.570Z,8.30
2019-03-30T12:50:56.550Z,8.20
2019-03-30T12:51:56.530Z,7.40
2019-03-30T12:52:56.513Z,8.10
2019-03-30T12:53:56.498Z,7.70
2019-03-30T12:54:56.476Z,8.70